Gamaliel, AR (72537)

1:38 PM CDT on August 04, 2015 (GMT -0500)
Baxter County Regional | | Change Station
CLOSE
Current Station
Airport
Location: Mountain Home,
Elevation: 925 ft
Nearby Weather Stations

Elev 925 ft 36.37 °N, 92.47 °W | Updated 45 minutes ago

Clear
Clear
88 °F
Feels Like 92 °F
N
6
Wind Variable Wind from Variable

Today
High -- | Low -- °F
--% Chance of Precip.
Yesterday
High -- | Low -- °F
Precip. -- in
6:18 AM 8:12 PM
Waning Gibbous, 75% visible
Pressure 29.97 in
Visibility 9.0 miles
Clouds Clear
Heat Index 92 °F
Dew Point 69 °F
Humidity 53%
Rainfall 0.00 in
Snow Depth Not available.
UV 12 out of 12
Pollen 6.50 out of 12
Air Quality Not available.
Flu Activity Not available.
METAR KBPK 041753Z AUTO VRB05KT 9SM CLR 31/21 A3001 RMK AO2 SLP149 T03110206 10311 20211 56005

More Conditions Fewer Conditions

Pressure 29.97 in
Visibility 9.0 miles
Clouds Clear
Heat Index 92 °F
Dew Point 69 °F
Humidity 53%
Rainfall 0.00 in
Snow Depth Not available.
UV 12 out of 12
Pollen 6.50 out of 12
Air Quality Not available.
Flu Activity Not available.
METAR KBPK 041753Z AUTO VRB05KT 9SM CLR 31/21 A3001 RMK AO2 SLP149 T03110206 10311 20211 56005

More Conditions Fewer Conditions

10-Day Weather Forecast

×

Almanac

Astronomy

Aug. 04, 2015 Rise Set
Actual Time
Civil Twilight
Nautical Twilight
Astronomical Twilight
Moon
Length of Visible Light
Length of Day
Tomorrow will be .
, % of the Moon is Illuminated

Today's Extremes

State Highs State Lows

Community

WunderPhotos

Upload Photos

1,843,937 photos uploaded!

WunderBlogs® & News

Nearby

Air Quality

  Air Quality AQ Index Pollutant
Not available.

Snow Depth

Station Depth Elevation

Earthquake Activity

City Distance Mag. Time & Date
Minimum magnitude displayed is 2.5.

Coastal Water Temperatures

Place Temperature

Stations

Nearby Weather Stations

Station Location Temp. Windchill Dew Point Humidity Wind Precip. Elev Updated Type